sensor_id;sensor_type;location;lat;lon;timestamp;pressure;altitude;pressure_sealevel;temperature;humidity
49178;BME280;35016;55.674;37.468;2024-03-23T00:54:37;98033.28;;;3.20;57.44
49178;BME280;35016;55.674;37.468;2024-03-23T00:57:03;98021.00;;;3.24;57.79
49178;BME280;35016;55.674;37.468;2024-03-23T00:59:29;98021.81;;;3.25;57.93
49178;BME280;35016;55.674;37.468;2024-03-23T01:01:57;98014.59;;;3.25;57.76
49178;BME280;35016;55.674;37.468;2024-03-23T01:04:23;98019.72;;;3.27;57.84
49178;BME280;35016;55.674;37.468;2024-03-23T01:06:49;98005.75;;;3.25;57.76
49178;BME280;35016;55.674;37.468;2024-03-23T01:09:15;98007.31;;;3.21;57.62
49178;BME280;35016;55.674;37.468;2024-03-23T01:11:41;98001.16;;;3.20;57.94
49178;BME280;35016;55.674;37.468;2024-03-23T01:14:07;97998.47;;;3.20;58.04
49178;BME280;35016;55.674;37.468;2024-03-23T01:16:33;97996.03;;;3.19;58.05
49178;BME280;35016;55.674;37.468;2024-03-23T01:19:00;97989.53;;;3.15;58.18
49178;BME280;35016;55.674;37.468;2024-03-23T01:21:26;97997.91;;;3.18;58.28
49178;BME280;35016;55.674;37.468;2024-03-23T01:23:52;97981.50;;;3.15;58.35
49178;BME280;35016;55.674;37.468;2024-03-23T01:26:18;97990.91;;;3.17;58.34
49178;BME280;35016;55.674;37.468;2024-03-23T01:28:44;97988.00;;;3.19;58.33
49178;BME280;35016;55.674;37.468;2024-03-23T01:31:10;97977.28;;;3.19;58.69
49178;BME280;35016;55.674;37.468;2024-03-23T01:33:37;97975.09;;;3.16;58.61
49178;BME280;35016;55.674;37.468;2024-03-23T01:36:03;97962.25;;;3.18;58.62
49178;BME280;35016;55.674;37.468;2024-03-23T01:38:30;97967.59;;;3.18;59.20
49178;BME280;35016;55.674;37.468;2024-03-23T01:40:57;97950.72;;;3.17;58.90
49178;BME280;35016;55.674;37.468;2024-03-23T01:43:23;97952.84;;;3.15;58.95
49178;BME280;35016;55.674;37.468;2024-03-23T01:45:50;97962.75;;;3.15;59.30
49178;BME280;35016;55.674;37.468;2024-03-23T01:48:20;97950.66;;;3.12;59.19
49178;BME280;35016;55.674;37.468;2024-03-23T01:50:47;97948.56;;;3.14;59.28
49178;BME280;35016;55.674;37.468;2024-03-23T01:53:14;97943.44;;;3.13;59.42
49178;BME280;35016;55.674;37.468;2024-03-23T01:55:43;97948.56;;;3.14;59.64
49178;BME280;35016;55.674;37.468;2024-03-23T01:58:10;97947.75;;;3.14;59.59
49178;BME280;35016;55.674;37.468;2024-03-23T02:00:37;97934.91;;;3.16;59.50
49178;BME280;35016;55.674;37.468;2024-03-23T02:03:22;97926.88;;;3.16;60.94
49178;BME280;35016;55.674;37.468;2024-03-23T02:05:50;97918.03;;;3.15;59.73
49178;BME280;35016;55.674;37.468;2024-03-23T02:08:21;97919.09;;;3.14;60.12
49178;BME280;35016;55.674;37.468;2024-03-23T02:10:49;97909.69;;;3.11;59.73
49178;BME280;35016;55.674;37.468;2024-03-23T02:13:18;97917.22;;;3.15;59.91
49178;BME280;35016;55.674;37.468;2024-03-23T02:15:45;97917.78;;;3.17;59.77
49178;BME280;35016;55.674;37.468;2024-03-23T02:18:34;97902.53;;;3.17;59.99
49178;BME280;35016;55.674;37.468;2024-03-23T02:21:01;97904.97;;;3.19;60.01
49178;BME280;35016;55.674;37.468;2024-03-23T02:23:27;97905.78;;;3.19;60.13
49178;BME280;35016;55.674;37.468;2024-03-23T02:25:53;97902.31;;;3.19;59.97
49178;BME280;35016;55.674;37.468;2024-03-23T02:28:20;97892.88;;;3.16;60.40
49178;BME280;35016;55.674;37.468;2024-03-23T02:30:46;97894.75;;;3.16;60.40
49178;BME280;35016;55.674;37.468;2024-03-23T02:33:12;97871.66;;;3.09;60.50
49178;BME280;35016;55.674;37.468;2024-03-23T02:35:38;97874.56;;;3.08;60.76
49178;BME280;35016;55.674;37.468;2024-03-23T02:38:04;97878.94;;;3.14;60.93
49178;BME280;35016;55.674;37.468;2024-03-23T02:40:30;97859.13;;;3.15;60.91
49178;BME280;35016;55.674;37.468;2024-03-23T02:42:56;97858.38;;;3.20;60.95
49178;BME280;35016;55.674;37.468;2024-03-23T02:45:23;97862.94;;;3.19;61.08
49178;BME280;35016;55.674;37.468;2024-03-23T02:47:49;97849.28;;;3.21;61.14
49178;BME280;35016;55.674;37.468;2024-03-23T02:50:19;97852.28;;;3.24;60.78
49178;BME280;35016;55.674;37.468;2024-03-23T02:52:46;97846.34;;;3.22;61.27
49178;BME280;35016;55.674;37.468;2024-03-23T02:55:12;97853.38;;;3.28;61.18
49178;BME280;35016;55.674;37.468;2024-03-23T02:57:38;97845.91;;;3.30;61.33
49178;BME280;35016;55.674;37.468;2024-03-23T03:00:05;97837.59;;;3.32;61.46
49178;BME280;35016;55.674;37.468;2024-03-23T03:02:33;97841.66;;;3.34;61.36
49178;BME280;35016;55.674;37.468;2024-03-23T03:04:59;97831.47;;;3.36;61.01
49178;BME280;35016;55.674;37.468;2024-03-23T03:07:25;97825.88;;;3.38;61.26
49178;BME280;35016;55.674;37.468;2024-03-23T03:09:51;97809.78;;;3.38;61.46
49178;BME280;35016;55.674;37.468;2024-03-23T03:12:18;97811.41;;;3.39;61.44
49178;BME280;35016;55.674;37.468;2024-03-23T03:14:44;97807.41;;;3.41;61.20
49178;BME280;35016;55.674;37.468;2024-03-23T03:17:10;97809.28;;;3.41;61.87
49178;BME280;35016;55.674;37.468;2024-03-23T03:19:36;97808.47;;;3.40;61.42
49178;BME280;35016;55.674;37.468;2024-03-23T03:22:02;97800.69;;;3.39;61.80
49178;BME280;35016;55.674;37.468;2024-03-23T03:24:30;97785.94;;;3.36;61.73
49178;BME280;35016;55.674;37.468;2024-03-23T03:26:56;97779.78;;;3.36;61.90
49178;BME280;35016;55.674;37.468;2024-03-23T03:29:24;97778.97;;;3.35;61.83
49178;BME280;35016;55.674;37.468;2024-03-23T03:31:50;97781.38;;;3.37;61.86
49178;BME280;35016;55.674;37.468;2024-03-23T03:34:17;97780.56;;;3.36;62.27
49178;BME280;35016;55.674;37.468;2024-03-23T03:36:43;97774.94;;;3.33;62.25
49178;BME280;35016;55.674;37.468;2024-03-23T03:39:08;97784.06;;;3.37;62.14
49178;BME280;35016;55.674;37.468;2024-03-23T03:41:35;97774.16;;;3.37;62.24
49178;BME280;35016;55.674;37.468;2024-03-23T03:44:02;97766.66;;;3.39;62.35
49178;BME280;35016;55.674;37.468;2024-03-23T03:46:28;97759.69;;;3.38;62.28
49178;BME280;35016;55.674;37.468;2024-03-23T03:48:55;97766.16;;;3.42;62.21
49178;BME280;35016;55.674;37.468;2024-03-23T03:51:21;97743.97;;;3.47;62.44
49178;BME280;35016;55.674;37.468;2024-03-23T03:53:47;97736.13;;;3.40;62.39
49178;BME280;35016;55.674;37.468;2024-03-23T03:56:13;97734.66;;;3.55;62.31
49178;BME280;35016;55.674;37.468;2024-03-23T03:58:40;97733.63;;;3.61;62.50
49178;BME280;35016;55.674;37.468;2024-03-23T04:01:06;97735.47;;;3.60;62.26
49178;BME280;35016;55.674;37.468;2024-03-23T04:03:33;97730.69;;;3.62;62.77
49178;BME280;35016;55.674;37.468;2024-03-23T04:05:59;97726.94;;;3.63;62.71
49178;BME280;35016;55.674;37.468;2024-03-23T04:08:25;97718.38;;;3.66;62.73
49178;BME280;35016;55.674;37.468;2024-03-23T04:10:51;97716.22;;;3.68;62.66
49178;BME280;35016;55.674;37.468;2024-03-23T04:13:17;97728.56;;;3.69;62.86
49178;BME280;35016;55.674;37.468;2024-03-23T04:15:43;97716.53;;;3.72;62.74
49178;BME280;35016;55.674;37.468;2024-03-23T04:18:09;97705.78;;;3.72;62.93
49178;BME280;35016;55.674;37.468;2024-03-23T04:20:35;97714.97;;;3.76;62.90
49178;BME280;35016;55.674;37.468;2024-03-23T04:23:02;97714.97;;;3.76;62.95
49178;BME280;35016;55.674;37.468;2024-03-23T04:25:28;97708.53;;;3.77;63.01
49178;BME280;35016;55.674;37.468;2024-03-23T04:27:54;97695.94;;;3.78;62.76
49178;BME280;35016;55.674;37.468;2024-03-23T04:30:20;97691.13;;;3.80;63.17
49178;BME280;35016;55.674;37.468;2024-03-23T04:32:47;97683.34;;;3.83;63.08
49178;BME280;35016;55.674;37.468;2024-03-23T04:35:13;97695.44;;;3.86;62.96
49178;BME280;35016;55.674;37.468;2024-03-23T04:37:40;97688.47;;;3.85;63.07
49178;BME280;35016;55.674;37.468;2024-03-23T04:40:09;97680.44;;;3.90;63.11
49178;BME280;35016;55.674;37.468;2024-03-23T04:42:37;97681.78;;;3.92;63.25
49178;BME280;35016;55.674;37.468;2024-03-23T04:45:04;97670.03;;;4.03;63.18
49178;BME280;35016;55.674;37.468;2024-03-23T04:47:31;97692.34;;;4.09;62.81
49178;BME280;35016;55.674;37.468;2024-03-23T04:49:58;97674.91;;;4.12;63.22
49178;BME280;35016;55.674;37.468;2024-03-23T04:52:24;97667.13;;;4.15;63.35
49178;BME280;35016;55.674;37.468;2024-03-23T04:54:51;97659.38;;;4.19;63.28
49178;BME280;35016;55.674;37.468;2024-03-23T04:57:17;97655.59;;;4.15;63.33
49178;BME280;35016;55.674;37.468;2024-03-23T04:59:47;97667.69;;;4.17;62.97
49178;BME280;35016;55.674;37.468;2024-03-23T05:02:14;97663.09;;;4.13;63.22
49178;BME280;35016;55.674;37.468;2024-03-23T05:04:42;97661.50;;;4.17;63.06
49178;BME280;35016;55.674;37.468;2024-03-23T05:07:08;97670.09;;;4.19;63.58
49178;BME280;35016;55.674;37.468;2024-03-23T05:09:34;97650.25;;;4.20;63.11
49178;BME280;35016;55.674;37.468;2024-03-23T05:12:00;97653.47;;;4.22;63.64
49178;BME280;35016;55.674;37.468;2024-03-23T05:14:27;97649.72;;;4.23;63.61
49178;BME280;35016;55.674;37.468;2024-03-23T05:16:53;97654.56;;;4.26;63.53
49178;BME280;35016;55.674;37.468;2024-03-23T05:19:19;97647.84;;;4.28;63.82
49178;BME280;35016;55.674;37.468;2024-03-23T05:21:45;97644.38;;;4.28;63.84
49178;BME280;35016;55.674;37.468;2024-03-23T05:24:12;97649.47;;;4.29;63.83
49178;BME280;35016;55.674;37.468;2024-03-23T05:26:38;97637.94;;;4.29;63.80
49178;BME280;35016;55.674;37.468;2024-03-23T05:29:04;97634.16;;;4.25;63.92
49178;BME280;35016;55.674;37.468;2024-03-23T05:31:32;97638.72;;;4.29;63.94
49178;BME280;35016;55.674;37.468;2024-03-23T05:33:58;97625.59;;;4.28;64.24
49178;BME280;35016;55.674;37.468;2024-03-23T05:36:24;97628.00;;;4.24;64.34
49178;BME280;35016;55.674;37.468;2024-03-23T05:38:50;97625.84;;;4.26;64.53
49178;BME280;35016;55.674;37.468;2024-03-23T05:41:16;97613.50;;;4.20;64.38
49178;BME280;35016;55.674;37.468;2024-03-23T05:43:43;97627.47;;;4.27;64.41
49178;BME280;35016;55.674;37.468;2024-03-23T05:46:09;97611.09;;;4.29;64.73
49178;BME280;35016;55.674;37.468;2024-03-23T05:48:36;97609.50;;;4.28;64.94
49178;BME280;35016;55.674;37.468;2024-03-23T05:51:02;97615.66;;;4.28;64.86
49178;BME280;35016;55.674;37.468;2024-03-23T05:53:29;97615.13;;;4.26;64.77
49178;BME280;35016;55.674;37.468;2024-03-23T05:56:03;97601.97;;;4.30;65.42
49178;BME280;35016;55.674;37.468;2024-03-23T05:58:29;97609.75;;;4.26;64.95
49178;BME280;35016;55.674;37.468;2024-03-23T06:01:00;97601.44;;;4.23;65.11
49178;BME280;35016;55.674;37.468;2024-03-23T06:03:28;97601.44;;;4.23;64.90
49178;BME280;35016;55.674;37.468;2024-03-23T06:05:55;97607.59;;;4.28;64.73
49178;BME280;35016;55.674;37.468;2024-03-23T06:08:22;97595.00;;;4.24;65.08
49178;BME280;35016;55.674;37.468;2024-03-23T06:10:51;97588.81;;;4.28;65.32
49178;BME280;35016;55.674;37.468;2024-03-23T06:13:17;97603.84;;;4.29;65.11
49178;BME280;35016;55.674;37.468;2024-03-23T06:15:44;97595.28;;;4.32;65.55
49178;BME280;35016;55.674;37.468;2024-03-23T06:18:13;97595.03;;;4.34;65.78
49178;BME280;35016;55.674;37.468;2024-03-23T06:20:39;97593.41;;;4.33;65.60
49178;BME280;35016;55.674;37.468;2024-03-23T06:23:06;97592.09;;;4.35;65.51
49178;BME280;35016;55.674;37.468;2024-03-23T06:25:32;97587.53;;;4.36;65.54
49178;BME280;35016;55.674;37.468;2024-03-23T06:27:59;97580.28;;;4.37;65.59
49178;BME280;35016;55.674;37.468;2024-03-23T06:30:27;97581.88;;;4.38;65.83
49178;BME280;35016;55.674;37.468;2024-03-23T06:32:53;97580.78;;;4.33;65.55
49178;BME280;35016;55.674;37.468;2024-03-23T06:35:19;97581.09;;;4.37;65.53
49178;BME280;35016;55.674;37.468;2024-03-23T06:37:45;97574.38;;;4.40;65.59
49178;BME280;35016;55.674;37.468;2024-03-23T06:40:12;97579.75;;;4.45;66.24
49178;BME280;35016;55.674;37.468;2024-03-23T06:42:38;97567.13;;;4.45;65.81
49178;BME280;35016;55.674;37.468;2024-03-23T06:45:05;97576.53;;;4.48;65.68
49178;BME280;35016;55.674;37.468;2024-03-23T06:47:32;97563.38;;;4.46;66.12
49178;BME280;35016;55.674;37.468;2024-03-23T06:50:02;97566.84;;;4.52;66.01
49178;BME280;35016;55.674;37.468;2024-03-23T06:52:32;97556.66;;;4.54;65.61
49178;BME280;35016;55.674;37.468;2024-03-23T06:54:58;97547.81;;;4.53;65.89
49178;BME280;35016;55.674;37.468;2024-03-23T06:57:24;97549.94;;;4.56;65.91
49178;BME280;35016;55.674;37.468;2024-03-23T06:59:51;97548.59;;;4.59;66.19
49178;BME280;35016;55.674;37.468;2024-03-23T07:02:17;97546.19;;;4.62;66.31
49178;BME280;35016;55.674;37.468;2024-03-23T07:04:43;97545.66;;;4.65;66.08
49178;BME280;35016;55.674;37.468;2024-03-23T07:07:09;97540.28;;;4.71;66.12
49178;BME280;35016;55.674;37.468;2024-03-23T07:09:35;97546.19;;;4.73;66.48
49178;BME280;35016;55.674;37.468;2024-03-23T07:12:03;97527.41;;;4.73;65.95
49178;BME280;35016;55.674;37.468;2024-03-23T07:14:30;97529.00;;;4.74;66.33
49178;BME280;35016;55.674;37.468;2024-03-23T07:16:57;97543.25;;;4.74;66.43
49178;BME280;35016;55.674;37.468;2024-03-23T07:19:23;97530.34;;;4.76;66.55
49178;BME280;35016;55.674;37.468;2024-03-23T07:21:51;97530.63;;;4.80;66.77
49178;BME280;35016;55.674;37.468;2024-03-23T07:24:18;97535.97;;;4.85;66.46
49178;BME280;35016;55.674;37.468;2024-03-23T07:26:44;97533.53;;;4.88;66.88
49178;BME280;35016;55.674;37.468;2024-03-23T07:29:10;97534.38;;;4.94;66.60
49178;BME280;35016;55.674;37.468;2024-03-23T07:31:36;97537.84;;;4.94;66.17
49178;BME280;35016;55.674;37.468;2024-03-23T07:34:03;97519.06;;;4.94;66.21
49178;BME280;35016;55.674;37.468;2024-03-23T07:36:29;97515.28;;;4.95;66.50
49178;BME280;35016;55.674;37.468;2024-03-23T07:38:57;97504.28;;;4.87;66.51
49178;BME280;35016;55.674;37.468;2024-03-23T07:41:24;97513.94;;;4.88;66.32
49178;BME280;35016;55.674;37.468;2024-03-23T07:43:50;97530.59;;;4.95;66.41
49178;BME280;35016;55.674;37.468;2024-03-23T07:46:16;97527.13;;;4.94;66.29
49178;BME280;35016;55.674;37.468;2024-03-23T07:48:42;97520.13;;;4.93;66.57
49178;BME280;35016;55.674;37.468;2024-03-23T07:51:16;97526.56;;;4.97;66.96
49178;BME280;35016;55.674;37.468;2024-03-23T07:53:43;97516.06;;;5.06;67.41
49178;BME280;35016;55.674;37.468;2024-03-23T07:56:10;97514.97;;;5.12;66.25
49178;BME280;35016;55.674;37.468;2024-03-23T07:58:37;97501.00;;;5.15;66.84
49178;BME280;35016;55.674;37.468;2024-03-23T08:01:14;97521.13;;;5.28;67.42
49178;BME280;35016;55.674;37.468;2024-03-23T08:03:43;97523.53;;;5.29;66.64
49178;BME280;35016;55.674;37.468;2024-03-23T08:06:14;97514.38;;;5.31;66.66
49178;BME280;35016;55.674;37.468;2024-03-23T08:08:41;97505.81;;;5.28;66.81
49178;BME280;35016;55.674;37.468;2024-03-23T08:11:08;97507.94;;;5.32;67.15
49178;BME280;35016;55.674;37.468;2024-03-23T08:13:35;97519.47;;;5.37;66.74
49178;BME280;35016;55.674;37.468;2024-03-23T08:16:08;97510.56;;;5.42;66.61
49178;BME280;35016;55.674;37.468;2024-03-23T08:18:54;97499.84;;;5.37;66.13
49178;BME280;35016;55.674;37.468;2024-03-23T08:21:32;97498.50;;;5.34;66.39
49178;BME280;35016;55.674;37.468;2024-03-23T08:24:01;97483.78;;;5.26;66.65
49178;BME280;35016;55.674;37.468;2024-03-23T08:26:32;97499.31;;;5.35;67.04
49178;BME280;35016;55.674;37.468;2024-03-23T08:29:03;97474.13;;;5.20;66.95
49178;BME280;35016;55.674;37.468;2024-03-23T08:31:30;97474.59;;;5.33;67.15
49178;BME280;35016;55.674;37.468;2024-03-23T08:33:57;97477.78;;;5.40;67.36
49178;BME280;35016;55.674;37.468;2024-03-23T08:36:23;97464.66;;;5.33;67.04
49178;BME280;35016;55.674;37.468;2024-03-23T08:38:50;97485.81;;;5.55;66.93
49178;BME280;35016;55.674;37.468;2024-03-23T08:41:25;97468.06;;;5.54;66.86
49178;BME280;35016;55.674;37.468;2024-03-23T08:48:05;97485.00;;;5.54;66.34
49178;BME280;35016;55.674;37.468;2024-03-23T08:50:31;97471.81;;;5.58;66.81
49178;BME280;35016;55.674;37.468;2024-03-23T08:52:58;97474.78;;;5.56;66.82
49178;BME280;35016;55.674;37.468;2024-03-23T08:55:24;97475.03;;;5.60;66.99
49178;BME280;35016;55.674;37.468;2024-03-23T08:57:50;97476.09;;;5.59;66.79
49178;BME280;35016;55.674;37.468;2024-03-23T09:00:16;97476.09;;;5.59;67.30
49178;BME280;35016;55.674;37.468;2024-03-23T09:02:47;97466.97;;;5.60;66.83
49178;BME280;35016;55.674;37.468;2024-03-23T09:05:13;97468.56;;;5.61;67.02
49178;BME280;35016;55.674;37.468;2024-03-23T09:07:39;97462.38;;;5.60;67.05
49178;BME280;35016;55.674;37.468;2024-03-23T09:10:07;97441.47;;;5.47;67.37
49178;BME280;35016;55.674;37.468;2024-03-23T09:12:33;97457.53;;;5.63;67.09
49178;BME280;35016;55.674;37.468;2024-03-23T09:15:03;97461.53;;;5.65;67.15
49178;BME280;35016;55.674;37.468;2024-03-23T09:17:30;97455.34;;;5.70;67.14
49178;BME280;35016;55.674;37.468;2024-03-23T09:19:56;97438.91;;;5.71;67.42
49178;BME280;35016;55.674;37.468;2024-03-23T09:22:23;97456.94;;;5.71;67.26
49178;BME280;35016;55.674;37.468;2024-03-23T09:24:50;97451.31;;;5.67;67.38
49178;BME280;35016;55.674;37.468;2024-03-23T09:27:16;97453.78;;;5.58;67.15
49178;BME280;35016;55.674;37.468;2024-03-23T09:29:42;97453.78;;;5.58;67.38
49178;BME280;35016;55.674;37.468;2024-03-23T09:32:08;97432.03;;;5.55;67.62
49178;BME280;35016;55.674;37.468;2024-03-23T09:34:34;97438.50;;;5.54;67.86
49178;BME280;35016;55.674;37.468;2024-03-23T09:37:01;97437.94;;;5.57;67.88
49178;BME280;35016;55.674;37.468;2024-03-23T09:39:27;97440.31;;;5.64;68.02
49178;BME280;35016;55.674;37.468;2024-03-23T09:41:56;97431.19;;;5.59;67.65
49178;BME280;35016;55.674;37.468;2024-03-23T09:44:24;97439.75;;;5.67;67.31
49178;BME280;35016;55.674;37.468;2024-03-23T09:47:17;97444.00;;;5.73;68.45
49178;BME280;35016;55.674;37.468;2024-03-23T09:49:44;97442.41;;;5.72;67.62
49178;BME280;35016;55.674;37.468;2024-03-23T09:52:10;97435.69;;;5.69;66.93
49178;BME280;35016;55.674;37.468;2024-03-23T09:54:37;97427.91;;;5.68;67.08
49178;BME280;35016;55.674;37.468;2024-03-23T09:57:03;97434.09;;;5.68;67.19
49178;BME280;35016;55.674;37.468;2024-03-23T09:59:30;97422.22;;;5.74;67.15
49178;BME280;35016;55.674;37.468;2024-03-23T10:01:56;97431.63;;;5.77;67.63
49178;BME280;35016;55.674;37.468;2024-03-23T10:04:38;97430.28;;;5.79;67.90
49178;BME280;35016;55.674;37.468;2024-03-23T10:07:15;97428.13;;;5.81;67.44
49178;BME280;35016;55.674;37.468;2024-03-23T10:09:46;97416.84;;;5.79;67.50
49178;BME280;35016;55.674;37.468;2024-03-23T10:12:18;97414.94;;;5.80;66.71
49178;BME280;35016;55.674;37.468;2024-03-23T10:14:45;97428.63;;;5.83;67.18
49178;BME280;35016;55.674;37.468;2024-03-23T10:17:20;97429.72;;;5.82;67.33
49178;BME280;35016;55.674;37.468;2024-03-23T10:19:56;97417.91;;;5.78;67.29
49178;BME280;35016;55.674;37.468;2024-03-23T10:22:23;97423.81;;;5.80;66.97
49178;BME280;35016;55.674;37.468;2024-03-23T10:24:52;97413.34;;;5.79;66.78
49178;BME280;35016;55.674;37.468;2024-03-23T10:27:20;97400.69;;;5.79;67.15
49178;BME280;35016;55.674;37.468;2024-03-23T10:29:48;97407.94;;;5.84;67.03
49178;BME280;35016;55.674;37.468;2024-03-23T10:32:16;97414.63;;;5.86;67.51
49178;BME280;35016;55.674;37.468;2024-03-23T10:34:42;97414.91;;;5.90;67.45
49178;BME280;35016;55.674;37.468;2024-03-23T10:37:09;97403.84;;;5.92;67.04
49178;BME280;35016;55.674;37.468;2024-03-23T10:39:39;97404.09;;;5.95;67.93
49178;BME280;35016;55.674;37.468;2024-03-23T10:42:07;97410.00;;;5.97;67.46
49178;BME280;35016;55.674;37.468;2024-03-23T10:44:34;97409.16;;;6.02;67.63
49178;BME280;35016;55.674;37.468;2024-03-23T10:47:01;97402.41;;;6.04;67.25
49178;BME280;35016;55.674;37.468;2024-03-23T10:49:30;97399.16;;;6.07;67.54
49178;BME280;35016;55.674;37.468;2024-03-23T10:52:00;97413.94;;;6.10;67.47
49178;BME280;35016;55.674;37.468;2024-03-23T10:54:28;97387.09;;;6.00;67.46
49178;BME280;35016;55.674;37.468;2024-03-23T10:57:06;97391.97;;;5.98;67.82
49178;BME280;35016;55.674;37.468;2024-03-23T10:59:44;97412.88;;;6.06;67.45
49178;BME280;35016;55.674;37.468;2024-03-23T11:02:21;97407.78;;;6.04;67.76
49178;BME280;35016;55.674;37.468;2024-03-23T11:04:48;97394.09;;;6.01;67.33
49178;BME280;35016;55.674;37.468;2024-03-23T11:09:51;97399.72;;;6.04;66.98
49178;BME280;35016;55.674;37.468;2024-03-23T11:14:51;97383.84;;;6.08;67.13
49178;BME280;35016;55.674;37.468;2024-03-23T11:17:19;97376.63;;;5.98;67.30
49178;BME280;35016;55.674;37.468;2024-03-23T11:20:02;97385.16;;;6.10;67.83
49178;BME280;35016;55.674;37.468;2024-03-23T11:22:44;97383.84;;;6.03;67.88
49178;BME280;35016;55.674;37.468;2024-03-23T11:27:46;97361.22;;;6.09;67.22
49178;BME280;35016;55.674;37.468;2024-03-23T11:30:33;97377.50;;;6.22;68.63
49178;BME280;35016;55.674;37.468;2024-03-23T11:33:17;97360.41;;;6.08;67.76
49178;BME280;35016;55.674;37.468;2024-03-23T11:39:19;97381.41;;;6.06;67.40
49178;BME280;35016;55.674;37.468;2024-03-23T11:41:50;97356.25;;;5.92;67.31
49178;BME280;35016;55.674;37.468;2024-03-23T11:44:21;97345.75;;;5.90;66.92
49178;BME280;35016;55.674;37.468;2024-03-23T11:46:49;97350.06;;;5.86;67.32
49178;BME280;35016;55.674;37.468;2024-03-23T11:49:26;97345.25;;;5.83;67.55
49178;BME280;35016;55.674;37.468;2024-03-23T11:51:54;97377.75;;;5.92;67.31
49178;BME280;35016;55.674;37.468;2024-03-23T11:54:24;97370.56;;;5.77;67.42
49178;BME280;35016;55.674;37.468;2024-03-23T11:56:56;97369.25;;;5.75;68.07
49178;BME280;35016;55.674;37.468;2024-03-23T11:59:39;97361.91;;;5.85;68.80
49178;BME280;35016;55.674;37.468;2024-03-23T12:02:09;97366.50;;;5.85;67.74
49178;BME280;35016;55.674;37.468;2024-03-23T12:04:40;97337.88;;;5.65;68.40
49178;BME280;35016;55.674;37.468;2024-03-23T12:07:18;97358.75;;;5.78;68.24
49178;BME280;35016;55.674;37.468;2024-03-23T12:09:46;97352.91;;;5.66;67.65
49178;BME280;35016;55.674;37.468;2024-03-23T12:12:16;97346.50;;;5.62;68.31
49178;BME280;35016;55.674;37.468;2024-03-23T12:14:44;97349.19;;;5.62;68.13
49178;BME280;35016;55.674;37.468;2024-03-23T12:17:13;97368.97;;;5.76;68.09
49178;BME280;35016;55.674;37.468;2024-03-23T12:19:40;97370.88;;;5.71;68.23
49178;BME280;35016;55.674;37.468;2024-03-23T12:22:08;97349.13;;;5.67;68.35
49178;BME280;35016;55.674;37.468;2024-03-23T12:24:35;97347.28;;;5.63;68.34
49178;BME280;35016;55.674;37.468;2024-03-23T12:27:03;97357.97;;;5.73;68.53
49178;BME280;35016;55.674;37.468;2024-03-23T12:29:34;97338.16;;;5.64;68.41
49178;BME280;35016;55.674;37.468;2024-03-23T12:32:02;97369.28;;;5.70;68.70
49178;BME280;35016;55.674;37.468;2024-03-23T12:37:27;97348.16;;;5.58;68.62
49178;BME280;35016;55.674;37.468;2024-03-23T12:39:57;97352.16;;;5.60;68.67
49178;BME280;35016;55.674;37.468;2024-03-23T12:42:23;97338.50;;;5.52;68.72
49178;BME280;35016;55.674;37.468;2024-03-23T12:44:49;97338.81;;;5.45;68.80
49178;BME280;35016;55.674;37.468;2024-03-23T12:47:22;97340.16;;;5.43;69.08
49178;BME280;35016;55.674;37.468;2024-03-23T12:49:49;97352.72;;;5.57;69.40
49178;BME280;35016;55.674;37.468;2024-03-23T12:52:18;97360.78;;;5.57;69.38
49178;BME280;35016;55.674;37.468;2024-03-23T12:54:47;97353.31;;;5.49;69.27
49178;BME280;35016;55.674;37.468;2024-03-23T12:57:13;97333.47;;;5.40;68.96
49178;BME280;35016;55.674;37.468;2024-03-23T12:59:42;97356.81;;;5.45;69.15
49178;BME280;35016;55.674;37.468;2024-03-23T13:02:08;97337.47;;;5.43;69.71
49178;BME280;35016;55.674;37.468;2024-03-23T13:05:06;97344.97;;;5.46;69.87
49178;BME280;35016;55.674;37.468;2024-03-23T13:07:46;97337.19;;;5.49;69.20
49178;BME280;35016;55.674;37.468;2024-03-23T13:10:12;97340.88;;;5.58;69.32
49178;BME280;35016;55.674;37.468;2024-03-23T13:12:40;97326.44;;;5.49;69.83
49178;BME280;35016;55.674;37.468;2024-03-23T13:15:09;97340.94;;;5.48;69.81
49178;BME280;35016;55.674;37.468;2024-03-23T13:17:35;97322.72;;;5.40;69.92
49178;BME280;35016;55.674;37.468;2024-03-23T13:20:02;97329.13;;;5.49;70.07
49178;BME280;35016;55.674;37.468;2024-03-23T13:22:31;97342.28;;;5.51;69.46
49178;BME280;35016;55.674;37.468;2024-03-23T13:24:57;97326.69;;;5.48;69.79
49178;BME280;35016;55.674;37.468;2024-03-23T13:27:30;97339.78;;;5.59;69.64
49178;BME280;35016;55.674;37.468;2024-03-23T13:29:57;97314.09;;;5.43;69.54
49178;BME280;35016;55.674;37.468;2024-03-23T13:32:27;97327.56;;;5.38;69.91
49178;BME280;35016;55.674;37.468;2024-03-23T13:34:56;97318.66;;;5.43;69.85
49178;BME280;35016;55.674;37.468;2024-03-23T13:37:23;97322.66;;;5.50;70.28
49178;BME280;35016;55.674;37.468;2024-03-23T13:39:49;97329.09;;;5.54;69.75
49178;BME280;35016;55.674;37.468;2024-03-23T13:42:16;97340.69;;;5.50;70.11
49178;BME280;35016;55.674;37.468;2024-03-23T13:44:43;97333.13;;;5.52;70.07
49178;BME280;35016;55.674;37.468;2024-03-23T13:47:09;97333.56;;;5.64;70.30
49178;BME280;35016;55.674;37.468;2024-03-23T13:49:35;97313.75;;;5.55;70.53
49178;BME280;35016;55.674;37.468;2024-03-23T13:52:02;97335.41;;;5.69;70.14
49178;BME280;35016;55.674;37.468;2024-03-23T13:54:29;97331.66;;;5.70;70.58
49178;BME280;35016;55.674;37.468;2024-03-23T13:56:56;97313.38;;;5.67;70.30
49178;BME280;35016;55.674;37.468;2024-03-23T13:59:23;97349.34;;;5.76;70.01
49178;BME280;35016;55.674;37.468;2024-03-23T14:01:51;97339.16;;;5.73;70.29
49178;BME280;35016;55.674;37.468;2024-03-23T14:04:18;97327.41;;;5.64;69.90
49178;BME280;35016;55.674;37.468;2024-03-23T14:06:57;97300.50;;;5.64;70.32
49178;BME280;35016;55.674;37.468;2024-03-23T14:09:29;97339.44;;;5.71;70.39
49178;BME280;35016;55.674;37.468;2024-03-23T14:11:58;97340.28;;;5.67;70.52
49178;BME280;35016;55.674;37.468;2024-03-23T14:14:27;97317.81;;;5.52;70.31
49178;BME280;35016;55.674;37.468;2024-03-23T14:16:54;97334.34;;;5.70;70.39